Terminal Aerodrome Forecast
Issued by NWS Duluth, MN

Home | Current Version | Previous Version | Text Only | Print | Product List | Glossary On
Versions: 1 2 3 4 5 6 7 8 9 10 11 12 13 14 15 16 17 18 19 20 21 22 23 24 25 26 27 28 29 30 31 32 33 34 35 36 37 38 39
000
FTUS43 KDLH 301300 AAB
TAFINL
TAF AMD
KINL 301316Z 3013/3112 32005KT P6SM VCSH BKN015 OVC050
      TEMPO 3013/3015 OVC004
     FM301800 32015G25KT P6SM SCT015 BKN040
     FM302100 34015G26KT P6SM BKN035
     FM310700 35012G20KT P6SM SCT035=

USA.gov is the U.S. government's official web portal to all federal, state and local government web resources and services.